createdAt,value
2024-03-16T00:02:04.673Z,100072.89
2024-03-16T00:04:34.034Z,100074.05
2024-03-16T00:07:02.493Z,100072.23
2024-03-16T00:09:31.137Z,100071.66
2024-03-16T00:11:59.523Z,100074.17
2024-03-16T00:14:28.009Z,100075.39
2024-03-16T00:16:56.751Z,100081.02
2024-03-16T00:19:26.033Z,100072.79
2024-03-16T00:21:54.417Z,100074.75
2024-03-16T00:24:22.668Z,100075.13
2024-03-16T00:26:51.084Z,100073.82
2024-03-16T00:29:19.503Z,100074.89
2024-03-16T00:31:50.330Z,100069.66
2024-03-16T00:34:18.927Z,100064.69
2024-03-16T00:36:47.378Z,100064.08
2024-03-16T00:39:19.655Z,100074.57
2024-03-16T00:41:49.036Z,100070.31
2024-03-16T00:44:17.556Z,100060.70
2024-03-16T00:46:47.080Z,100071.09
2024-03-16T00:49:15.450Z,100073.07
2024-03-16T00:51:45.347Z,100071.38
2024-03-16T00:54:13.803Z,100063.30
2024-03-16T00:56:42.160Z,100068.80
2024-03-16T00:59:10.547Z,100069.34
2024-03-16T01:01:39.073Z,100065.56
2024-03-16T01:04:07.490Z,100050.98
2024-03-16T01:06:35.850Z,100057.45
2024-03-16T01:09:05.117Z,100066.33
2024-03-16T01:11:33.735Z,100061.41
2024-03-16T01:14:02.259Z,100063.33
2024-03-16T01:16:30.676Z,100057.01
2024-03-16T01:18:59.162Z,100064.33
2024-03-16T01:21:27.629Z,100063.14
2024-03-16T01:23:55.817Z,100058.00
2024-03-16T01:26:24.170Z,100063.05
2024-03-16T01:28:52.519Z,100062.33
2024-03-16T01:31:20.830Z,100060.42
2024-03-16T01:33:48.877Z,100061.27
2024-03-16T01:36:17.327Z,100062.67
2024-03-16T01:38:45.930Z,100063.46
2024-03-16T01:41:14.441Z,100064.17
2024-03-16T01:43:49.140Z,100063.96
2024-03-16T01:46:18.404Z,100057.01
2024-03-16T01:48:50.567Z,100066.25
2024-03-16T01:51:19.232Z,100063.70
2024-03-16T01:53:47.619Z,100064.00
2024-03-16T01:56:16.188Z,100066.80
2024-03-16T01:58:46.806Z,100062.05
2024-03-16T02:01:15.059Z,100064.33
2024-03-16T02:03:44.422Z,100067.91
2024-03-16T02:06:13.008Z,100067.86
2024-03-16T02:08:41.314Z,100060.94
2024-03-16T02:11:09.734Z,100067.38
2024-03-16T02:13:38.124Z,100065.33
2024-03-16T02:16:06.966Z,100051.59
2024-03-16T02:18:35.312Z,100066.86
2024-03-16T02:21:06.176Z,100067.78
2024-03-16T02:23:34.724Z,100061.79
2024-03-16T02:26:03.667Z,100063.68
2024-03-16T02:28:32.007Z,100068.55
2024-03-16T02:31:00.430Z,100071.70
2024-03-16T02:33:28.978Z,100069.09
2024-03-16T02:35:58.416Z,100078.40
2024-03-16T02:38:26.615Z,100077.77
2024-03-16T02:40:55.170Z,100082.25
2024-03-16T02:43:23.790Z,100082.58
2024-03-16T02:45:53.708Z,100074.90
2024-03-16T02:48:22.162Z,100083.84
2024-03-16T02:50:50.540Z,100083.98
2024-03-16T02:53:19.417Z,100085.11
2024-03-16T02:55:47.962Z,100083.01
2024-03-16T02:58:16.364Z,100084.52
2024-03-16T03:00:45.537Z,100084.71
2024-03-16T03:03:14.011Z,100085.55
2024-03-16T03:05:42.181Z,100081.48
2024-03-16T03:08:11.356Z,100085.69
2024-03-16T03:10:42.804Z,100078.52
2024-03-16T03:13:11.491Z,100075.66
2024-03-16T03:15:40.138Z,100081.63
2024-03-16T03:18:08.698Z,100076.64
2024-03-16T03:20:37.099Z,100076.44
2024-03-16T03:23:06.697Z,100075.82
2024-03-16T03:25:37.237Z,100074.05
2024-03-16T03:28:05.858Z,100075.84
2024-03-16T03:30:34.317Z,100080.22
2024-03-16T03:33:02.749Z,100076.48
2024-03-16T03:35:33.029Z,100072.65
2024-03-16T03:38:01.452Z,100086.68
2024-03-16T03:40:30.283Z,100086.91
2024-03-16T03:43:01.824Z,100082.15
2024-03-16T03:45:49.675Z,100082.98
2024-03-16T03:48:24.520Z,100082.98
2024-03-16T03:50:55.523Z,100083.64
2024-03-16T03:53:28.459Z,100081.66
2024-03-16T03:55:56.933Z,100080.86
2024-03-16T03:58:25.874Z,100074.59
2024-03-16T04:00:54.456Z,100080.10
2024-03-16T04:03:22.944Z,100073.52
2024-03-16T04:05:54.573Z,100083.02
2024-03-16T04:08:23.028Z,100081.41
2024-03-16T04:10:51.489Z,100084.12
2024-03-16T04:13:19.685Z,100085.58
2024-03-16T04:15:48.177Z,100084.80
2024-03-16T04:18:16.384Z,100083.73
2024-03-16T04:20:44.671Z,100085.25
2024-03-16T04:23:13.869Z,100082.77
2024-03-16T04:25:42.227Z,100090.95
2024-03-16T04:28:13.231Z,100082.85
2024-03-16T04:30:41.808Z,100095.35
2024-03-16T04:33:10.239Z,100102.05
2024-03-16T04:35:38.705Z,100095.39
2024-03-16T04:38:09.289Z,100108.29
2024-03-16T04:40:37.640Z,100104.76
2024-03-16T04:43:06.268Z,100111.91
2024-03-16T04:45:34.781Z,100112.90
2024-03-16T04:48:03.323Z,100111.41
2024-03-16T04:50:31.842Z,100112.73
2024-03-16T04:52:59.862Z,100111.10
2024-03-16T04:55:28.299Z,100107.67
2024-03-16T04:57:58.882Z,100106.75
2024-03-16T05:00:27.655Z,100113.60
2024-03-16T05:02:56.345Z,100113.76
2024-03-16T05:05:24.620Z,100113.75
2024-03-16T05:07:53.080Z,100114.61
2024-03-16T05:10:21.605Z,100108.45
2024-03-16T05:12:51.483Z,100106.53
2024-03-16T05:15:19.985Z,100095.98
2024-03-16T05:17:48.347Z,100096.21
2024-03-16T05:20:16.647Z,100100.11
2024-03-16T05:22:44.901Z,100101.48
2024-03-16T05:25:13.211Z,100102.80
2024-03-16T05:27:41.773Z,100108.16
2024-03-16T05:30:10.839Z,100106.36
2024-03-16T05:32:39.394Z,100107.45
2024-03-16T05:35:09.979Z,100109.58
2024-03-16T05:37:38.750Z,100113.63
2024-03-16T05:40:07.903Z,100109.84
2024-03-16T05:42:38.906Z,100113.27
2024-03-16T05:45:08.584Z,100117.86
2024-03-16T05:47:37.644Z,100115.11
2024-03-16T05:50:07.090Z,100116.67
2024-03-16T05:52:37.046Z,100112.92
2024-03-16T05:55:06.379Z,100113.11
2024-03-16T05:57:34.908Z,100112.32
2024-03-16T06:00:05.290Z,100115.30
2024-03-16T06:02:41.521Z,100114.24
2024-03-16T06:05:10.808Z,100121.36
2024-03-16T06:07:39.255Z,100113.77
2024-03-16T06:10:12.043Z,100120.84
2024-03-16T06:12:40.685Z,100122.64
2024-03-16T06:15:10.170Z,100120.64
2024-03-16T06:17:38.623Z,100116.92
2024-03-16T06:20:08.209Z,100127.71
2024-03-16T06:22:36.421Z,100127.71
2024-03-16T06:25:05.803Z,100128.81
2024-03-16T06:27:35.196Z,100132.86
2024-03-16T06:30:04.009Z,100134.73
2024-03-16T06:32:35.590Z,100133.58
2024-03-16T06:35:05.730Z,100137.41
2024-03-16T06:37:34.049Z,100139.39
2024-03-16T06:40:02.489Z,100138.09
2024-03-16T06:42:30.767Z,100142.58
2024-03-16T06:44:59.396Z,100143.46
2024-03-16T06:47:28.883Z,100142.44
2024-03-16T06:49:57.274Z,100145.55
2024-03-16T06:52:28.440Z,100145.27
2024-03-16T06:54:56.852Z,100153.42
2024-03-16T06:57:26.228Z,100157.14
2024-03-16T06:59:54.627Z,100157.13
2024-03-16T07:02:23.277Z,100159.51
2024-03-16T07:04:51.782Z,100142.77
2024-03-16T07:07:20.178Z,100162.17
2024-03-16T07:09:48.813Z,100157.26
2024-03-16T07:12:17.228Z,100166.54
2024-03-16T07:14:45.747Z,100164.22
2024-03-16T07:17:14.145Z,100167.12
2024-03-16T07:19:42.331Z,100165.28
2024-03-16T07:22:11.009Z,100171.95
2024-03-16T07:24:39.703Z,100177.30
2024-03-16T07:27:08.646Z,100177.20
2024-03-16T07:29:37.843Z,100175.98
2024-03-16T07:32:07.161Z,100177.67
2024-03-16T07:34:35.652Z,100174.20
2024-03-16T07:37:05.606Z,100178.31
2024-03-16T07:39:34.096Z,100175.86
2024-03-16T07:42:02.635Z,100171.32
2024-03-16T07:44:32.543Z,100170.25
2024-03-16T07:47:01.376Z,100176.03
2024-03-16T07:49:30.283Z,100172.33
2024-03-16T07:51:59.034Z,100172.42
2024-03-16T07:54:27.197Z,100175.85
2024-03-16T07:56:55.539Z,100169.47
2024-03-16T07:59:24.020Z,100172.59
2024-03-16T08:01:52.488Z,100169.13
2024-03-16T08:04:21.236Z,100170.91
2024-03-16T08:06:49.683Z,100167.16
2024-03-16T08:09:18.363Z,100162.13
2024-03-16T08:11:46.779Z,100169.83
2024-03-16T08:14:15.394Z,100161.80
2024-03-16T08:16:43.690Z,100168.00
2024-03-16T08:19:12.429Z,100162.42
2024-03-16T08:21:41.180Z,100168.36
2024-03-16T08:24:09.695Z,100170.05
2024-03-16T08:26:38.224Z,100165.27
2024-03-16T08:29:06.769Z,100168.90
2024-03-16T08:31:35.199Z,100168.70
2024-03-16T08:34:03.654Z,100176.34
2024-03-16T08:36:32.391Z,100170.20
2024-03-16T08:39:04.946Z,100166.48
2024-03-16T08:41:33.397Z,100168.90
2024-03-16T08:44:01.835Z,100168.91
2024-03-16T08:46:30.470Z,100164.48
2024-03-16T08:48:59.512Z,100159.68
2024-03-16T08:51:28.431Z,100162.80
2024-03-16T08:53:57.227Z,100158.14
2024-03-16T08:56:29.367Z,100155.96
2024-03-16T08:58:57.876Z,100151.77
2024-03-16T09:01:26.325Z,100153.40
2024-03-16T09:03:54.793Z,100152.13
2024-03-16T09:06:23.286Z,100152.45
2024-03-16T09:08:51.947Z,100143.30
2024-03-16T09:11:20.185Z,100148.70
2024-03-16T09:13:48.352Z,100149.19
2024-03-16T09:16:17.042Z,100139.05
2024-03-16T09:18:46.516Z,100144.07
2024-03-16T09:21:15.079Z,100132.16
2024-03-16T09:23:43.275Z,100136.77
2024-03-16T09:26:12.043Z,100126.67
2024-03-16T09:28:40.411Z,100133.66
2024-03-16T09:31:11.674Z,100133.46
2024-03-16T09:33:40.262Z,100136.75
2024-03-16T09:36:08.686Z,100123.15
2024-03-16T09:38:37.474Z,100132.45
2024-03-16T09:41:05.926Z,100129.70
2024-03-16T09:43:35.021Z,100130.40
2024-03-16T09:46:05.549Z,100134.20
2024-03-16T09:48:34.092Z,100127.90
2024-03-16T09:51:02.913Z,100128.42
2024-03-16T09:53:33.413Z,100128.04
2024-03-16T09:56:11.581Z,100128.69
2024-03-16T09:58:41.269Z,100129.10
2024-03-16T10:01:10.943Z,100125.27
2024-03-16T10:03:39.329Z,100123.93
2024-03-16T10:06:10.271Z,100124.90
2024-03-16T10:08:38.454Z,100122.15
2024-03-16T10:11:17.075Z,100129.96
2024-03-16T10:13:54.843Z,100127.02
2024-03-16T10:16:22.888Z,100119.91
2024-03-16T10:18:53.866Z,100117.25
2024-03-16T10:21:22.139Z,100120.64
2024-03-16T10:23:50.530Z,100110.94
2024-03-16T10:26:18.839Z,100119.60
2024-03-16T10:28:47.372Z,100109.41
2024-03-16T10:31:16.080Z,100121.25
2024-03-16T10:33:44.487Z,100120.20
2024-03-16T10:36:19.174Z,100119.00
2024-03-16T10:38:48.183Z,100119.17
2024-03-16T10:41:17.795Z,100115.39
2024-03-16T10:43:48.712Z,100116.28
2024-03-16T10:46:17.119Z,100115.67
2024-03-16T10:48:46.609Z,100107.55
2024-03-16T10:51:19.014Z,100112.42
2024-03-16T10:53:47.995Z,100111.45
2024-03-16T10:56:17.733Z,100109.59
2024-03-16T10:58:46.053Z,100104.95
2024-03-16T11:01:19.651Z,100105.58
2024-03-16T11:03:56.660Z,100101.41
2024-03-16T11:06:26.805Z,100096.92
2024-03-16T11:08:54.891Z,100082.59
2024-03-16T11:11:29.870Z,100084.80
2024-03-16T11:13:59.584Z,100085.76
2024-03-16T11:16:35.175Z,100083.41
2024-03-16T11:19:08.969Z,100069.22
2024-03-16T11:21:39.828Z,100081.79
2024-03-16T11:24:15.024Z,100079.41
2024-03-16T11:26:45.064Z,100077.17
2024-03-16T11:29:22.588Z,100071.08
2024-03-16T11:31:54.802Z,100070.18
2024-03-16T11:34:23.823Z,100072.31
2024-03-16T11:36:55.013Z,100065.97
2024-03-16T11:39:26.605Z,100063.86
2024-03-16T11:42:14.389Z,100054.30
2024-03-16T11:44:47.162Z,100058.58
2024-03-16T11:47:17.572Z,100056.08
2024-03-16T11:49:45.861Z,100054.87
2024-03-16T11:52:14.111Z,100056.15
2024-03-16T11:54:49.112Z,100041.66
2024-03-16T11:57:17.573Z,100048.85
2024-03-16T11:59:46.981Z,100051.32
2024-03-16T12:02:15.554Z,100047.21
2024-03-16T12:04:43.964Z,100047.23
2024-03-16T12:07:12.609Z,100043.84
2024-03-16T12:09:56.757Z,100037.95
2024-03-16T12:12:25.910Z,100040.37
2024-03-16T12:15:27.035Z,100035.06
2024-03-16T12:17:55.986Z,100040.11
2024-03-16T12:20:24.350Z,100041.50
2024-03-16T12:22:54.436Z,100036.32
2024-03-16T12:25:28.201Z,100033.31
2024-03-16T12:28:01.000Z,100027.94
2024-03-16T12:30:35.523Z,100040.55
2024-03-16T12:33:04.535Z,100036.66
2024-03-16T12:35:36.768Z,100042.94
2024-03-16T12:38:05.211Z,100037.18
2024-03-16T12:40:35.640Z,100039.06
2024-03-16T12:43:05.499Z,100036.05
2024-03-16T12:45:33.745Z,100036.15
2024-03-16T12:48:02.265Z,100030.84
2024-03-16T12:50:30.610Z,100031.19
2024-03-16T12:52:58.904Z,100029.41
2024-03-16T12:55:27.584Z,100024.81
2024-03-16T12:57:55.878Z,100023.50
2024-03-16T13:00:27.011Z,100024.48
2024-03-16T13:02:55.746Z,100017.75
2024-03-16T13:05:24.304Z,100022.73
2024-03-16T13:07:52.666Z,100015.48
2024-03-16T13:10:22.939Z,100018.20
2024-03-16T13:12:52.984Z,100015.86
2024-03-16T13:15:22.044Z,100014.26
2024-03-16T13:17:51.077Z,100012.02
2024-03-16T13:20:19.428Z,100010.03
2024-03-16T13:22:55.048Z,100008.85
2024-03-16T13:25:29.724Z,99995.07
2024-03-16T13:27:58.060Z,99993.93
2024-03-16T13:30:26.404Z,99997.77
2024-03-16T13:32:54.634Z,99999.09
2024-03-16T13:35:24.022Z,99993.31
2024-03-16T13:37:52.228Z,99988.24
2024-03-16T13:40:20.612Z,99994.62
2024-03-16T13:42:48.967Z,99992.51
2024-03-16T13:45:17.330Z,99990.16
2024-03-16T13:47:47.520Z,99984.59
2024-03-16T13:50:15.890Z,99984.09
2024-03-16T13:52:44.089Z,99975.70
2024-03-16T13:55:19.324Z,99978.40
2024-03-16T13:57:47.772Z,99973.19
2024-03-16T14:00:20.194Z,99973.34
2024-03-16T14:02:48.735Z,99963.06
2024-03-16T14:05:18.140Z,99972.53
2024-03-16T14:07:48.797Z,99967.36
2024-03-16T14:10:18.650Z,99965.48
2024-03-16T14:12:50.226Z,99966.77
2024-03-16T14:15:18.448Z,99961.00
2024-03-16T14:17:47.384Z,99964.16
2024-03-16T14:20:18.554Z,99962.67
2024-03-16T14:22:50.115Z,99965.28
2024-03-16T14:25:19.020Z,99958.71
2024-03-16T14:27:48.733Z,99961.00
2024-03-16T14:30:17.254Z,99957.25
2024-03-16T14:32:47.704Z,99952.49
2024-03-16T14:35:17.257Z,99957.20
2024-03-16T14:37:46.321Z,99957.17
2024-03-16T14:40:23.106Z,99951.46
2024-03-16T14:42:52.025Z,99959.61
2024-03-16T14:45:20.262Z,99956.45
2024-03-16T14:47:48.559Z,99957.00
2024-03-16T14:50:21.073Z,99954.05
2024-03-16T14:52:49.431Z,99952.02
2024-03-16T14:55:17.692Z,99942.40
2024-03-16T14:57:46.061Z,99951.27
2024-03-16T15:00:17.221Z,99948.79
2024-03-16T15:02:45.497Z,99952.33
2024-03-16T15:05:20.040Z,99952.50
2024-03-16T15:07:48.462Z,99951.76
2024-03-16T15:10:17.546Z,99949.88
2024-03-16T15:12:46.303Z,99949.94
2024-03-16T15:15:14.731Z,99947.38
2024-03-16T15:17:42.877Z,99954.48
2024-03-16T15:20:11.179Z,99953.88
2024-03-16T15:22:40.692Z,99953.39
2024-03-16T15:25:20.035Z,99953.04
2024-03-16T15:27:50.909Z,99957.36
2024-03-16T15:30:19.670Z,99965.63
2024-03-16T15:32:47.900Z,99968.94
2024-03-16T15:35:16.234Z,99972.48
2024-03-16T15:37:44.960Z,99968.48
2024-03-16T15:40:16.288Z,99970.94
2024-03-16T15:42:44.849Z,99963.59
2024-03-16T15:45:14.605Z,99967.65
2024-03-16T15:47:42.589Z,99968.59
2024-03-16T15:50:10.872Z,99962.44
2024-03-16T15:52:39.189Z,99973.52
2024-03-16T15:55:07.895Z,99965.20
2024-03-16T15:57:36.570Z,99971.08
2024-03-16T16:00:06.370Z,99984.11
2024-03-16T16:02:35.546Z,99984.84
2024-03-16T16:05:04.777Z,99988.00
2024-03-16T16:07:33.190Z,99986.63
2024-03-16T16:10:01.509Z,99990.91
2024-03-16T16:12:30.878Z,99991.63
2024-03-16T16:14:59.202Z,99993.05
2024-03-16T16:17:27.464Z,99996.35
2024-03-16T16:19:55.819Z,99994.31
2024-03-16T16:22:24.216Z,99996.75
2024-03-16T16:24:53.151Z,99995.87
2024-03-16T16:27:21.529Z,100003.36
2024-03-16T16:29:49.813Z,100007.45
2024-03-16T16:32:18.149Z,100005.83
2024-03-16T16:34:48.216Z,100006.55
2024-03-16T16:37:16.524Z,100009.23
2024-03-16T16:39:44.888Z,100017.09
2024-03-16T16:42:15.812Z,100018.92
2024-03-16T16:44:44.065Z,100022.38
2024-03-16T16:47:12.439Z,100020.69
2024-03-16T16:49:40.832Z,100024.86
2024-03-16T16:52:09.189Z,100017.77
2024-03-16T16:54:37.394Z,100023.98
2024-03-16T16:57:05.705Z,100019.27
2024-03-16T16:59:33.844Z,100026.46
2024-03-16T17:02:04.610Z,100025.41
2024-03-16T17:04:34.040Z,100021.39
2024-03-16T17:07:03.760Z,100023.94
2024-03-16T17:09:31.929Z,100028.64
2024-03-16T17:12:00.253Z,100033.66
2024-03-16T17:14:31.257Z,100037.56
2024-03-16T17:16:59.978Z,100031.13
2024-03-16T17:19:28.533Z,100037.39
2024-03-16T17:21:58.429Z,100048.32
2024-03-16T17:24:29.149Z,100049.29
2024-03-16T17:26:58.180Z,100044.79
2024-03-16T17:29:26.487Z,100049.95
2024-03-16T17:31:54.680Z,100048.92
2024-03-16T17:34:23.066Z,100046.02
2024-03-16T17:36:51.373Z,100050.66
2024-03-16T17:39:23.914Z,100047.94
2024-03-16T17:41:55.636Z,100052.29
2024-03-16T17:44:23.907Z,100052.02
2024-03-16T17:46:52.234Z,100056.36
2024-03-16T17:49:20.864Z,100048.37
2024-03-16T17:51:51.242Z,100053.24
2024-03-16T17:54:19.610Z,100050.45
2024-03-16T17:56:47.959Z,100055.56
2024-03-16T17:59:18.612Z,100054.17
2024-03-16T18:01:46.906Z,100050.98
2024-03-16T18:04:15.369Z,100052.27
2024-03-16T18:06:43.739Z,100047.52
2024-03-16T18:09:12.032Z,100047.72
2024-03-16T18:11:40.417Z,100049.95
2024-03-16T18:14:08.830Z,100044.50
2024-03-16T18:16:43.842Z,100050.48
2024-03-16T18:19:13.310Z,100048.68
2024-03-16T18:21:41.923Z,100050.48
2024-03-16T18:24:11.452Z,100048.96
2024-03-16T18:26:40.859Z,100046.57
2024-03-16T18:29:10.045Z,100047.55
2024-03-16T18:31:38.590Z,100051.18
2024-03-16T18:34:06.995Z,100052.52
2024-03-16T18:36:35.261Z,100049.17
2024-03-16T18:39:10.841Z,100050.78
2024-03-16T18:41:39.086Z,100052.02
2024-03-16T18:44:10.178Z,100048.17
2024-03-16T18:46:38.421Z,100043.98
2024-03-16T18:49:06.608Z,100050.17
2024-03-16T18:51:36.536Z,100051.20
2024-03-16T18:54:05.074Z,100049.29
2024-03-16T18:56:33.343Z,100052.00
2024-03-16T18:59:04.580Z,100045.05
2024-03-16T19:01:32.892Z,100043.48
2024-03-16T19:04:03.282Z,100041.39
2024-03-16T19:06:32.461Z,100046.11
2024-03-16T19:09:01.214Z,100040.55
2024-03-16T19:11:29.515Z,100041.95
2024-03-16T19:13:57.824Z,100045.95
2024-03-16T19:16:26.205Z,100047.35
2024-03-16T19:19:00.409Z,100047.80
2024-03-16T19:21:28.717Z,100047.84
2024-03-16T19:23:57.753Z,100049.33
2024-03-16T19:26:26.147Z,100052.00
2024-03-16T19:28:54.613Z,100050.27
2024-03-16T19:31:23.192Z,100048.73
2024-03-16T19:33:51.470Z,100041.93
2024-03-16T19:36:24.468Z,100044.27
2024-03-16T19:38:53.502Z,100044.02
2024-03-16T19:41:23.582Z,100041.23
2024-03-16T19:43:51.967Z,100040.14
2024-03-16T19:46:20.424Z,100041.95
2024-03-16T19:48:48.790Z,100038.89
2024-03-16T19:51:17.191Z,100041.77
2024-03-16T19:53:45.511Z,100036.25
2024-03-16T19:56:13.976Z,100039.29
2024-03-16T19:58:42.328Z,100035.21
2024-03-16T20:01:10.713Z,100032.20
2024-03-16T20:03:42.886Z,100032.34
2024-03-16T20:06:14.133Z,100034.70
2024-03-16T20:08:42.536Z,100030.45
2024-03-16T20:11:11.545Z,100031.18
2024-03-16T20:13:39.673Z,100029.98
2024-03-16T20:16:10.145Z,100032.98
2024-03-16T20:18:40.312Z,100036.36
2024-03-16T20:21:08.674Z,100031.04
2024-03-16T20:23:37.015Z,100031.23
2024-03-16T20:26:06.745Z,100025.95
2024-03-16T20:28:35.262Z,100031.72
2024-03-16T20:31:03.677Z,100017.26
2024-03-16T20:33:33.136Z,100036.45
2024-03-16T20:36:01.425Z,100037.58
2024-03-16T20:38:29.666Z,100030.41
2024-03-16T20:40:57.942Z,100028.60
2024-03-16T20:43:26.049Z,100029.75
2024-03-16T20:45:54.615Z,100031.33
2024-03-16T20:48:22.744Z,100015.75
2024-03-16T20:50:51.031Z,100033.02
2024-03-16T20:53:19.956Z,100025.28
2024-03-16T20:55:49.821Z,100030.98
2024-03-16T20:58:18.168Z,100028.05
2024-03-16T21:00:46.312Z,100029.23
2024-03-16T21:03:14.642Z,100029.89
2024-03-16T21:05:43.173Z,100032.54
2024-03-16T21:08:11.459Z,100032.50
2024-03-16T21:10:39.702Z,100032.13
2024-03-16T21:13:07.845Z,100026.98
2024-03-16T21:15:36.138Z,100025.99
2024-03-16T21:18:04.934Z,100027.61
2024-03-16T21:20:34.046Z,100026.05
2024-03-16T21:23:02.280Z,100024.33
2024-03-16T21:25:30.656Z,100017.18
2024-03-16T21:27:59.200Z,100018.36
2024-03-16T21:30:27.704Z,100010.20
2024-03-16T21:32:56.167Z,100007.05
2024-03-16T21:35:24.392Z,100011.55
2024-03-16T21:37:56.798Z,100008.22
2024-03-16T21:55:23.944Z,100006.27
2024-03-16T21:57:52.316Z,100006.92
2024-03-16T22:00:21.566Z,100011.45
2024-03-16T22:02:49.821Z,100010.23
2024-03-16T22:05:18.439Z,100010.37
2024-03-16T22:07:46.806Z,100006.40
2024-03-16T22:10:15.095Z,100012.77
2024-03-16T22:12:48.296Z,100008.80
2024-03-16T22:15:17.932Z,100002.91
2024-03-16T22:17:46.113Z,100015.95
2024-03-16T22:20:14.505Z,100016.65
2024-03-16T22:22:49.578Z,100023.48
2024-03-16T22:25:18.971Z,100022.17
2024-03-16T22:27:49.713Z,100019.50
2024-03-16T22:30:18.694Z,100017.02
2024-03-16T22:32:47.032Z,100014.81
2024-03-16T22:35:16.707Z,100019.46
2024-03-16T22:37:44.860Z,100016.90
2024-03-16T22:40:13.195Z,100016.00
2024-03-16T22:42:42.706Z,100012.62
2024-03-16T22:45:18.046Z,100012.13
2024-03-16T22:47:46.412Z,100008.95
2024-03-16T22:50:14.819Z,100009.92
2024-03-16T22:52:46.522Z,100005.44
2024-03-16T22:55:15.028Z,100010.69
2024-03-16T22:57:43.314Z,100010.73
2024-03-16T23:00:20.156Z,100005.29
2024-03-16T23:02:48.772Z,100013.77
2024-03-16T23:05:17.141Z,100013.07
2024-03-16T23:07:46.146Z,100012.33
2024-03-16T23:10:16.014Z,100008.80
2024-03-16T23:12:44.211Z,100005.06
2024-03-16T23:15:12.703Z,100006.69
2024-03-16T23:17:40.927Z,100007.08
2024-03-16T23:20:09.891Z,100004.19
2024-03-16T23:22:43.066Z,99993.94
2024-03-16T23:25:11.463Z,99994.46
2024-03-16T23:27:39.720Z,99994.20
2024-03-16T23:30:10.167Z,99992.73
2024-03-16T23:32:39.967Z,99990.27
2024-03-16T23:35:12.040Z,99993.38
2024-03-16T23:37:40.583Z,99994.68
2024-03-16T23:40:14.525Z,99995.00
2024-03-16T23:42:43.002Z,99991.42
2024-03-16T23:45:11.134Z,99998.39
2024-03-16T23:47:39.673Z,99998.20
2024-03-16T23:50:09.128Z,99997.45
2024-03-16T23:52:37.857Z,99996.48
2024-03-16T23:55:06.911Z,99996.47
2024-03-16T23:57:35.132Z,99996.55
